sensor_id;sensor_type;location;lat;lon;timestamp;P1;durP1;ratioP1;P2;durP2;ratioP2
20982;SDS011;10650;51.528;6.748;2022-07-23T00:00:44;8.13;;;6.28;;
20982;SDS011;10650;51.528;6.748;2022-07-23T00:03:13;9.32;;;7.10;;
20982;SDS011;10650;51.528;6.748;2022-07-23T00:05:41;7.88;;;6.93;;
20982;SDS011;10650;51.528;6.748;2022-07-23T00:08:11;8.05;;;6.78;;
20982;SDS011;10650;51.528;6.748;2022-07-23T00:10:39;6.88;;;4.95;;
20982;SDS011;10650;51.528;6.748;2022-07-23T00:13:08;6.85;;;5.75;;
20982;SDS011;10650;51.528;6.748;2022-07-23T00:15:35;8.85;;;5.97;;
20982;SDS011;10650;51.528;6.748;2022-07-23T00:18:04;8.45;;;5.85;;
20982;SDS011;10650;51.528;6.748;2022-07-23T00:20:32;6.47;;;5.85;;
20982;SDS011;10650;51.528;6.748;2022-07-23T00:22:59;8.35;;;7.13;;
20982;SDS011;10650;51.528;6.748;2022-07-23T00:25:29;11.20;;;8.07;;
20982;SDS011;10650;51.528;6.748;2022-07-23T00:27:57;9.20;;;6.90;;
20982;SDS011;10650;51.528;6.748;2022-07-23T00:30:26;8.20;;;6.97;;
20982;SDS011;10650;51.528;6.748;2022-07-23T00:32:56;9.02;;;6.75;;
20982;SDS011;10650;51.528;6.748;2022-07-23T00:35:29;7.45;;;6.72;;
20982;SDS011;10650;51.528;6.748;2022-07-23T00:37:58;9.05;;;6.43;;
20982;SDS011;10650;51.528;6.748;2022-07-23T00:40:29;9.07;;;6.40;;
20982;SDS011;10650;51.528;6.748;2022-07-23T00:42:58;9.00;;;6.13;;
20982;SDS011;10650;51.528;6.748;2022-07-23T00:45:26;6.32;;;5.72;;
20982;SDS011;10650;51.528;6.748;2022-07-23T00:47:54;6.80;;;5.28;;
20982;SDS011;10650;51.528;6.748;2022-07-23T00:50:22;7.93;;;6.60;;
20982;SDS011;10650;51.528;6.748;2022-07-23T00:52:50;9.95;;;6.45;;
20982;SDS011;10650;51.528;6.748;2022-07-23T00:55:19;7.20;;;6.50;;
20982;SDS011;10650;51.528;6.748;2022-07-23T00:57:48;6.97;;;5.68;;
20982;SDS011;10650;51.528;6.748;2022-07-23T01:00:17;7.20;;;6.10;;
20982;SDS011;10650;51.528;6.748;2022-07-23T01:02:45;8.70;;;6.68;;
20982;SDS011;10650;51.528;6.748;2022-07-23T01:05:14;8.60;;;6.10;;
20982;SDS011;10650;51.528;6.748;2022-07-23T01:07:42;8.18;;;6.28;;
20982;SDS011;10650;51.528;6.748;2022-07-23T01:10:11;9.02;;;6.80;;
20982;SDS011;10650;51.528;6.748;2022-07-23T01:12:54;7.57;;;5.47;;
20982;SDS011;10650;51.528;6.748;2022-07-23T01:15:22;8.32;;;7.20;;
20982;SDS011;10650;51.528;6.748;2022-07-23T01:17:50;7.35;;;6.65;;
20982;SDS011;10650;51.528;6.748;2022-07-23T01:20:18;11.52;;;8.00;;
20982;SDS011;10650;51.528;6.748;2022-07-23T01:22:48;7.47;;;6.43;;
20982;SDS011;10650;51.528;6.748;2022-07-23T01:25:16;6.93;;;6.22;;
20982;SDS011;10650;51.528;6.748;2022-07-23T01:27:43;7.78;;;6.10;;
20982;SDS011;10650;51.528;6.748;2022-07-23T01:30:12;7.15;;;6.50;;
20982;SDS011;10650;51.528;6.748;2022-07-23T01:32:40;7.75;;;6.70;;
20982;SDS011;10650;51.528;6.748;2022-07-23T01:35:08;7.32;;;6.50;;
20982;SDS011;10650;51.528;6.748;2022-07-23T01:37:36;9.90;;;7.57;;
20982;SDS011;10650;51.528;6.748;2022-07-23T01:40:06;11.80;;;9.45;;
20982;SDS011;10650;51.528;6.748;2022-07-23T01:42:35;9.90;;;8.60;;
20982;SDS011;10650;51.528;6.748;2022-07-23T01:45:04;7.30;;;6.60;;
20982;SDS011;10650;51.528;6.748;2022-07-23T01:47:32;9.88;;;8.80;;
20982;SDS011;10650;51.528;6.748;2022-07-23T01:50:01;10.57;;;8.70;;
20982;SDS011;10650;51.528;6.748;2022-07-23T01:52:28;9.95;;;8.15;;
20982;SDS011;10650;51.528;6.748;2022-07-23T01:54:56;7.72;;;6.78;;
20982;SDS011;10650;51.528;6.748;2022-07-23T01:57:25;7.45;;;6.45;;
20982;SDS011;10650;51.528;6.748;2022-07-23T01:59:53;7.40;;;6.80;;
20982;SDS011;10650;51.528;6.748;2022-07-23T02:02:21;8.73;;;7.43;;
20982;SDS011;10650;51.528;6.748;2022-07-23T02:04:49;9.52;;;8.40;;
20982;SDS011;10650;51.528;6.748;2022-07-23T02:07:17;10.30;;;8.85;;
20982;SDS011;10650;51.528;6.748;2022-07-23T02:09:45;8.32;;;6.90;;
20982;SDS011;10650;51.528;6.748;2022-07-23T02:12:12;10.65;;;9.30;;
20982;SDS011;10650;51.528;6.748;2022-07-23T02:14:42;9.73;;;7.40;;
20982;SDS011;10650;51.528;6.748;2022-07-23T02:17:10;8.32;;;7.45;;
20982;SDS011;10650;51.528;6.748;2022-07-23T02:19:38;9.68;;;7.53;;
20982;SDS011;10650;51.528;6.748;2022-07-23T02:22:06;10.13;;;8.20;;
20982;SDS011;10650;51.528;6.748;2022-07-23T02:24:34;9.30;;;7.18;;
20982;SDS011;10650;51.528;6.748;2022-07-23T02:27:02;12.57;;;10.32;;
20982;SDS011;10650;51.528;6.748;2022-07-23T02:29:30;15.55;;;10.48;;
20982;SDS011;10650;51.528;6.748;2022-07-23T02:31:59;11.93;;;8.02;;
20982;SDS011;10650;51.528;6.748;2022-07-23T02:34:27;11.77;;;9.50;;
20982;SDS011;10650;51.528;6.748;2022-07-23T02:36:55;10.05;;;8.73;;
20982;SDS011;10650;51.528;6.748;2022-07-23T02:39:22;15.38;;;11.18;;
20982;SDS011;10650;51.528;6.748;2022-07-23T02:41:50;9.68;;;8.73;;
20982;SDS011;10650;51.528;6.748;2022-07-23T02:44:18;9.27;;;8.10;;
20982;SDS011;10650;51.528;6.748;2022-07-23T02:46:46;8.38;;;7.35;;
20982;SDS011;10650;51.528;6.748;2022-07-23T02:49:15;10.98;;;8.73;;
20982;SDS011;10650;51.528;6.748;2022-07-23T02:51:43;11.65;;;9.73;;
20982;SDS011;10650;51.528;6.748;2022-07-23T02:54:11;10.40;;;8.57;;
20982;SDS011;10650;51.528;6.748;2022-07-23T02:56:39;13.43;;;10.85;;
20982;SDS011;10650;51.528;6.748;2022-07-23T02:59:06;10.05;;;9.05;;
20982;SDS011;10650;51.528;6.748;2022-07-23T03:01:34;12.57;;;9.40;;
20982;SDS011;10650;51.528;6.748;2022-07-23T03:04:02;10.15;;;7.97;;
20982;SDS011;10650;51.528;6.748;2022-07-23T03:06:32;10.27;;;8.63;;
20982;SDS011;10650;51.528;6.748;2022-07-23T03:09:00;11.70;;;10.10;;
20982;SDS011;10650;51.528;6.748;2022-07-23T03:11:28;10.57;;;8.73;;
20982;SDS011;10650;51.528;6.748;2022-07-23T03:13:56;9.13;;;8.23;;
20982;SDS011;10650;51.528;6.748;2022-07-23T03:16:24;10.85;;;8.88;;
20982;SDS011;10650;51.528;6.748;2022-07-23T03:18:52;10.05;;;8.65;;
20982;SDS011;10650;51.528;6.748;2022-07-23T03:21:20;12.07;;;10.20;;
20982;SDS011;10650;51.528;6.748;2022-07-23T03:23:49;13.93;;;12.40;;
20982;SDS011;10650;51.528;6.748;2022-07-23T03:26:17;10.10;;;9.20;;
20982;SDS011;10650;51.528;6.748;2022-07-23T03:28:45;9.43;;;8.18;;
20982;SDS011;10650;51.528;6.748;2022-07-23T03:31:12;12.82;;;9.90;;
20982;SDS011;10650;51.528;6.748;2022-07-23T03:33:40;9.80;;;8.38;;
20982;SDS011;10650;51.528;6.748;2022-07-23T03:36:08;11.00;;;8.40;;
20982;SDS011;10650;51.528;6.748;2022-07-23T03:38:36;8.52;;;7.35;;
20982;SDS011;10650;51.528;6.748;2022-07-23T03:41:05;9.68;;;8.25;;
20982;SDS011;10650;51.528;6.748;2022-07-23T03:43:33;10.88;;;9.27;;
20982;SDS011;10650;51.528;6.748;2022-07-23T03:46:01;10.80;;;8.73;;
20982;SDS011;10650;51.528;6.748;2022-07-23T03:48:29;11.32;;;9.43;;
20982;SDS011;10650;51.528;6.748;2022-07-23T03:50:57;11.55;;;10.05;;
20982;SDS011;10650;51.528;6.748;2022-07-23T03:53:25;11.05;;;9.88;;
20982;SDS011;10650;51.528;6.748;2022-07-23T03:55:53;11.05;;;9.93;;
20982;SDS011;10650;51.528;6.748;2022-07-23T03:58:22;13.55;;;11.18;;
20982;SDS011;10650;51.528;6.748;2022-07-23T04:00:50;11.52;;;9.73;;
20982;SDS011;10650;51.528;6.748;2022-07-23T04:03:17;11.50;;;9.55;;
20982;SDS011;10650;51.528;6.748;2022-07-23T04:05:45;9.55;;;8.57;;
20982;SDS011;10650;51.528;6.748;2022-07-23T04:08:13;14.45;;;11.63;;
20982;SDS011;10650;51.528;6.748;2022-07-23T04:10:41;9.57;;;8.55;;
20982;SDS011;10650;51.528;6.748;2022-07-23T04:13:09;10.60;;;9.20;;
20982;SDS011;10650;51.528;6.748;2022-07-23T04:15:38;10.02;;;9.02;;
20982;SDS011;10650;51.528;6.748;2022-07-23T04:18:06;11.10;;;9.98;;
20982;SDS011;10650;51.528;6.748;2022-07-23T04:20:34;10.88;;;9.40;;
20982;SDS011;10650;51.528;6.748;2022-07-23T04:23:06;16.33;;;10.68;;
20982;SDS011;10650;51.528;6.748;2022-07-23T04:25:34;12.35;;;9.90;;
20982;SDS011;10650;51.528;6.748;2022-07-23T04:28:01;10.30;;;9.20;;
20982;SDS011;10650;51.528;6.748;2022-07-23T04:30:30;12.48;;;10.55;;
20982;SDS011;10650;51.528;6.748;2022-07-23T04:32:59;12.80;;;9.75;;
20982;SDS011;10650;51.528;6.748;2022-07-23T04:35:27;11.30;;;9.13;;
20982;SDS011;10650;51.528;6.748;2022-07-23T04:37:55;11.55;;;10.30;;
20982;SDS011;10650;51.528;6.748;2022-07-23T04:40:23;10.85;;;9.50;;
20982;SDS011;10650;51.528;6.748;2022-07-23T04:42:51;12.38;;;10.32;;
20982;SDS011;10650;51.528;6.748;2022-07-23T04:45:18;13.45;;;12.00;;
20982;SDS011;10650;51.528;6.748;2022-07-23T04:47:46;12.30;;;11.02;;
20982;SDS011;10650;51.528;6.748;2022-07-23T04:50:16;11.68;;;9.90;;
20982;SDS011;10650;51.528;6.748;2022-07-23T04:52:47;10.15;;;9.15;;
20982;SDS011;10650;51.528;6.748;2022-07-23T04:55:15;12.93;;;10.52;;
20982;SDS011;10650;51.528;6.748;2022-07-23T04:57:43;11.85;;;9.40;;
20982;SDS011;10650;51.528;6.748;2022-07-23T05:00:11;11.35;;;9.38;;
20982;SDS011;10650;51.528;6.748;2022-07-23T05:02:40;11.35;;;10.25;;
20982;SDS011;10650;51.528;6.748;2022-07-23T05:05:08;14.40;;;11.70;;
20982;SDS011;10650;51.528;6.748;2022-07-23T05:07:37;11.65;;;10.02;;
20982;SDS011;10650;51.528;6.748;2022-07-23T05:10:05;12.98;;;10.77;;
20982;SDS011;10650;51.528;6.748;2022-07-23T05:12:33;12.35;;;9.93;;
20982;SDS011;10650;51.528;6.748;2022-07-23T05:15:01;11.23;;;10.02;;
20982;SDS011;10650;51.528;6.748;2022-07-23T05:17:29;11.23;;;9.43;;
20982;SDS011;10650;51.528;6.748;2022-07-23T05:19:56;14.02;;;10.93;;
20982;SDS011;10650;51.528;6.748;2022-07-23T05:22:26;11.82;;;10.65;;
20982;SDS011;10650;51.528;6.748;2022-07-23T05:24:56;10.02;;;8.95;;
20982;SDS011;10650;51.528;6.748;2022-07-23T05:27:23;13.02;;;11.05;;
20982;SDS011;10650;51.528;6.748;2022-07-23T05:29:51;9.00;;;8.10;;
20982;SDS011;10650;51.528;6.748;2022-07-23T05:32:19;11.35;;;9.15;;
20982;SDS011;10650;51.528;6.748;2022-07-23T05:34:47;14.43;;;11.55;;
20982;SDS011;10650;51.528;6.748;2022-07-23T05:37:15;9.13;;;8.23;;
20982;SDS011;10650;51.528;6.748;2022-07-23T05:39:43;10.77;;;9.68;;
20982;SDS011;10650;51.528;6.748;2022-07-23T05:42:12;8.65;;;7.43;;
20982;SDS011;10650;51.528;6.748;2022-07-23T05:44:40;10.45;;;8.25;;
20982;SDS011;10650;51.528;6.748;2022-07-23T05:47:08;11.45;;;9.80;;
20982;SDS011;10650;51.528;6.748;2022-07-23T05:49:36;9.82;;;8.55;;
20982;SDS011;10650;51.528;6.748;2022-07-23T05:52:04;10.35;;;8.88;;
20982;SDS011;10650;51.528;6.748;2022-07-23T05:54:33;9.18;;;8.23;;
20982;SDS011;10650;51.528;6.748;2022-07-23T05:57:02;10.18;;;9.15;;
20982;SDS011;10650;51.528;6.748;2022-07-23T05:59:31;10.30;;;8.82;;
20982;SDS011;10650;51.528;6.748;2022-07-23T06:01:59;11.27;;;9.05;;
20982;SDS011;10650;51.528;6.748;2022-07-23T06:04:27;12.80;;;10.82;;
20982;SDS011;10650;51.528;6.748;2022-07-23T06:06:55;11.02;;;9.80;;
20982;SDS011;10650;51.528;6.748;2022-07-23T06:09:23;11.25;;;9.65;;
20982;SDS011;10650;51.528;6.748;2022-07-23T06:11:50;10.90;;;9.80;;
20982;SDS011;10650;51.528;6.748;2022-07-23T06:14:18;10.45;;;9.32;;
20982;SDS011;10650;51.528;6.748;2022-07-23T06:16:47;11.13;;;9.80;;
20982;SDS011;10650;51.528;6.748;2022-07-23T06:19:15;13.10;;;10.73;;
20982;SDS011;10650;51.528;6.748;2022-07-23T06:21:43;12.48;;;10.35;;
20982;SDS011;10650;51.528;6.748;2022-07-23T06:24:13;10.20;;;9.20;;
20982;SDS011;10650;51.528;6.748;2022-07-23T06:26:41;11.38;;;10.18;;
20982;SDS011;10650;51.528;6.748;2022-07-23T06:29:09;11.20;;;10.10;;
20982;SDS011;10650;51.528;6.748;2022-07-23T06:31:37;14.75;;;11.88;;
20982;SDS011;10650;51.528;6.748;2022-07-23T06:34:06;10.85;;;8.63;;
20982;SDS011;10650;51.528;6.748;2022-07-23T06:36:34;10.00;;;8.35;;
20982;SDS011;10650;51.528;6.748;2022-07-23T06:39:02;12.63;;;11.18;;
20982;SDS011;10650;51.528;6.748;2022-07-23T06:41:31;12.50;;;10.73;;
20982;SDS011;10650;51.528;6.748;2022-07-23T06:43:59;13.13;;;10.70;;
20982;SDS011;10650;51.528;6.748;2022-07-23T06:46:27;15.13;;;10.93;;
20982;SDS011;10650;51.528;6.748;2022-07-23T06:48:54;14.13;;;10.82;;
20982;SDS011;10650;51.528;6.748;2022-07-23T06:51:24;11.05;;;9.88;;
20982;SDS011;10650;51.528;6.748;2022-07-23T06:53:52;12.60;;;10.32;;
20982;SDS011;10650;51.528;6.748;2022-07-23T06:56:19;10.60;;;9.25;;
20982;SDS011;10650;51.528;6.748;2022-07-23T06:58:47;11.48;;;9.98;;
20982;SDS011;10650;51.528;6.748;2022-07-23T07:01:15;10.60;;;8.88;;
20982;SDS011;10650;51.528;6.748;2022-07-23T07:03:43;12.25;;;8.80;;
20982;SDS011;10650;51.528;6.748;2022-07-23T07:06:11;9.60;;;8.52;;
20982;SDS011;10650;51.528;6.748;2022-07-23T07:08:41;10.48;;;9.05;;
20982;SDS011;10650;51.528;6.748;2022-07-23T07:11:09;9.50;;;8.27;;
20982;SDS011;10650;51.528;6.748;2022-07-23T07:13:37;9.38;;;7.75;;
20982;SDS011;10650;51.528;6.748;2022-07-23T07:16:06;12.63;;;8.20;;
20982;SDS011;10650;51.528;6.748;2022-07-23T07:18:34;9.65;;;8.07;;
20982;SDS011;10650;51.528;6.748;2022-07-23T07:21:02;9.65;;;7.65;;
20982;SDS011;10650;51.528;6.748;2022-07-23T07:23:30;11.18;;;8.05;;
20982;SDS011;10650;51.528;6.748;2022-07-23T07:25:59;7.47;;;6.55;;
20982;SDS011;10650;51.528;6.748;2022-07-23T07:28:27;6.78;;;6.07;;
20982;SDS011;10650;51.528;6.748;2022-07-23T07:30:55;7.60;;;5.32;;
20982;SDS011;10650;51.528;6.748;2022-07-23T07:33:23;9.60;;;6.72;;
20982;SDS011;10650;51.528;6.748;2022-07-23T07:35:50;7.28;;;5.78;;
20982;SDS011;10650;51.528;6.748;2022-07-23T07:38:18;7.18;;;6.07;;
20982;SDS011;10650;51.528;6.748;2022-07-23T07:40:46;6.30;;;5.68;;
20982;SDS011;10650;51.528;6.748;2022-07-23T07:43:16;8.35;;;6.20;;
20982;SDS011;10650;51.528;6.748;2022-07-23T07:45:43;7.38;;;5.18;;
20982;SDS011;10650;51.528;6.748;2022-07-23T07:48:11;7.22;;;6.05;;
20982;SDS011;10650;51.528;6.748;2022-07-23T07:50:39;11.20;;;5.85;;
20982;SDS011;10650;51.528;6.748;2022-07-23T07:53:08;7.30;;;4.90;;
20982;SDS011;10650;51.528;6.748;2022-07-23T07:55:36;7.43;;;5.45;;
20982;SDS011;10650;51.528;6.748;2022-07-23T07:58:04;7.22;;;5.50;;
20982;SDS011;10650;51.528;6.748;2022-07-23T08:00:41;6.88;;;5.45;;
20982;SDS011;10650;51.528;6.748;2022-07-23T08:03:09;8.30;;;5.80;;
20982;SDS011;10650;51.528;6.748;2022-07-23T08:05:37;7.55;;;5.80;;
20982;SDS011;10650;51.528;6.748;2022-07-23T08:08:05;7.25;;;6.18;;
20982;SDS011;10650;51.528;6.748;2022-07-23T08:10:33;8.50;;;5.80;;
20982;SDS011;10650;51.528;6.748;2022-07-23T08:13:00;9.40;;;5.78;;
20982;SDS011;10650;51.528;6.748;2022-07-23T08:15:29;8.80;;;6.88;;
20982;SDS011;10650;51.528;6.748;2022-07-23T08:17:59;9.40;;;6.25;;
20982;SDS011;10650;51.528;6.748;2022-07-23T08:20:28;8.65;;;6.53;;
20982;SDS011;10650;51.528;6.748;2022-07-23T08:22:56;5.45;;;4.90;;
20982;SDS011;10650;51.528;6.748;2022-07-23T08:25:26;7.30;;;6.18;;
20982;SDS011;10650;51.528;6.748;2022-07-23T08:27:56;7.47;;;5.20;;
20982;SDS011;10650;51.528;6.748;2022-07-23T08:30:24;6.40;;;5.20;;
20982;SDS011;10650;51.528;6.748;2022-07-23T08:32:54;7.90;;;4.95;;
20982;SDS011;10650;51.528;6.748;2022-07-23T08:35:25;5.75;;;4.97;;
20982;SDS011;10650;51.528;6.748;2022-07-23T08:37:54;6.70;;;4.67;;
20982;SDS011;10650;51.528;6.748;2022-07-23T08:40:23;5.50;;;4.40;;
20982;SDS011;10650;51.528;6.748;2022-07-23T08:42:52;8.68;;;4.90;;
20982;SDS011;10650;51.528;6.748;2022-07-23T08:45:22;9.15;;;5.30;;
20982;SDS011;10650;51.528;6.748;2022-07-23T08:47:53;8.82;;;5.40;;
20982;SDS011;10650;51.528;6.748;2022-07-23T08:50:25;7.78;;;5.13;;
20982;SDS011;10650;51.528;6.748;2022-07-23T08:52:53;6.15;;;4.88;;
20982;SDS011;10650;51.528;6.748;2022-07-23T08:55:23;5.07;;;4.30;;
20982;SDS011;10650;51.528;6.748;2022-07-23T08:57:51;5.22;;;4.45;;
20982;SDS011;10650;51.528;6.748;2022-07-23T09:00:20;5.20;;;4.18;;
20982;SDS011;10650;51.528;6.748;2022-07-23T09:02:49;5.45;;;4.60;;
20982;SDS011;10650;51.528;6.748;2022-07-23T09:05:19;5.82;;;4.30;;
20982;SDS011;10650;51.528;6.748;2022-07-23T09:08:05;5.13;;;4.60;;
20982;SDS011;10650;51.528;6.748;2022-07-23T09:10:46;6.13;;;4.70;;
20982;SDS011;10650;51.528;6.748;2022-07-23T09:13:27;6.22;;;3.72;;
20982;SDS011;10650;51.528;6.748;2022-07-23T09:16:03;5.13;;;3.83;;
20982;SDS011;10650;51.528;6.748;2022-07-23T09:18:38;4.82;;;3.70;;
20982;SDS011;10650;51.528;6.748;2022-07-23T09:21:20;5.20;;;4.07;;
20982;SDS011;10650;51.528;6.748;2022-07-23T09:23:53;5.43;;;4.63;;
20982;SDS011;10650;51.528;6.748;2022-07-23T09:26:27;5.60;;;3.95;;
20982;SDS011;10650;51.528;6.748;2022-07-23T09:29:04;7.25;;;5.05;;
20982;SDS011;10650;51.528;6.748;2022-07-23T09:31:34;4.90;;;3.63;;
20982;SDS011;10650;51.528;6.748;2022-07-23T09:34:13;4.20;;;3.80;;
20982;SDS011;10650;51.528;6.748;2022-07-23T09:36:43;4.40;;;3.92;;
20982;SDS011;10650;51.528;6.748;2022-07-23T09:39:13;5.00;;;3.70;;
20982;SDS011;10650;51.528;6.748;2022-07-23T09:41:42;5.38;;;4.35;;
20982;SDS011;10650;51.528;6.748;2022-07-23T09:44:12;6.70;;;4.10;;
20982;SDS011;10650;51.528;6.748;2022-07-23T09:46:42;4.93;;;3.92;;
20982;SDS011;10650;51.528;6.748;2022-07-23T09:49:15;5.15;;;3.70;;
20982;SDS011;10650;51.528;6.748;2022-07-23T09:51:45;4.55;;;4.00;;
20982;SDS011;10650;51.528;6.748;2022-07-23T09:57:07;4.60;;;3.60;;
20982;SDS011;10650;51.528;6.748;2022-07-23T09:59:40;3.70;;;3.22;;
20982;SDS011;10650;51.528;6.748;2022-07-23T10:02:10;3.75;;;3.10;;
20982;SDS011;10650;51.528;6.748;2022-07-23T10:04:39;3.95;;;2.90;;
20982;SDS011;10650;51.528;6.748;2022-07-23T10:07:08;3.17;;;2.88;;
20982;SDS011;10650;51.528;6.748;2022-07-23T10:09:39;4.95;;;3.22;;
20982;SDS011;10650;51.528;6.748;2022-07-23T10:12:11;4.72;;;2.70;;
20982;SDS011;10650;51.528;6.748;2022-07-23T10:14:48;3.33;;;3.03;;
20982;SDS011;10650;51.528;6.748;2022-07-23T10:17:16;4.00;;;2.70;;
20982;SDS011;10650;51.528;6.748;2022-07-23T10:19:44;4.93;;;2.80;;
20982;SDS011;10650;51.528;6.748;2022-07-23T10:22:14;3.08;;;2.78;;
20982;SDS011;10650;51.528;6.748;2022-07-23T10:24:49;4.93;;;3.10;;
20982;SDS011;10650;51.528;6.748;2022-07-23T10:27:38;3.28;;;2.80;;
20982;SDS011;10650;51.528;6.748;2022-07-23T10:30:15;2.95;;;2.70;;
20982;SDS011;10650;51.528;6.748;2022-07-23T10:32:49;4.72;;;2.90;;
20982;SDS011;10650;51.528;6.748;2022-07-23T10:35:26;4.28;;;3.30;;
20982;SDS011;10650;51.528;6.748;2022-07-23T10:38:02;5.65;;;3.30;;
20982;SDS011;10650;51.528;6.748;2022-07-23T10:40:36;4.63;;;3.40;;
20982;SDS011;10650;51.528;6.748;2022-07-23T10:43:04;3.53;;;3.22;;
20982;SDS011;10650;51.528;6.748;2022-07-23T10:45:47;3.00;;;2.80;;
20982;SDS011;10650;51.528;6.748;2022-07-23T10:48:16;2.45;;;2.25;;
20982;SDS011;10650;51.528;6.748;2022-07-23T10:51:05;2.45;;;2.17;;
20982;SDS011;10650;51.528;6.748;2022-07-23T10:59:32;3.53;;;2.42;;
20982;SDS011;10650;51.528;6.748;2022-07-23T11:02:39;3.25;;;2.80;;
20982;SDS011;10650;51.528;6.748;2022-07-23T11:05:08;3.38;;;2.47;;
20982;SDS011;10650;51.528;6.748;2022-07-23T11:10:42;2.95;;;2.42;;
20982;SDS011;10650;51.528;6.748;2022-07-23T11:13:29;4.13;;;2.58;;
20982;SDS011;10650;51.528;6.748;2022-07-23T11:16:12;3.70;;;3.05;;
20982;SDS011;10650;51.528;6.748;2022-07-23T11:21:46;3.38;;;2.47;;
20982;SDS011;10650;51.528;6.748;2022-07-23T11:24:16;2.67;;;2.47;;
20982;SDS011;10650;51.528;6.748;2022-07-23T11:29:39;3.33;;;2.53;;
20982;SDS011;10650;51.528;6.748;2022-07-23T11:32:23;5.13;;;3.20;;
20982;SDS011;10650;51.528;6.748;2022-07-23T11:35:22;3.23;;;2.43;;
20982;SDS011;10650;51.528;6.748;2022-07-23T11:37:52;5.43;;;2.88;;
20982;SDS011;10650;51.528;6.748;2022-07-23T11:40:25;4.43;;;2.90;;
20982;SDS011;10650;51.528;6.748;2022-07-23T11:42:55;4.10;;;3.00;;
20982;SDS011;10650;51.528;6.748;2022-07-23T11:45:32;2.47;;;2.28;;
20982;SDS011;10650;51.528;6.748;2022-07-23T11:48:01;3.38;;;2.53;;
20982;SDS011;10650;51.528;6.748;2022-07-23T11:50:30;2.85;;;2.53;;
20982;SDS011;10650;51.528;6.748;2022-07-23T11:52:59;3.67;;;2.97;;
20982;SDS011;10650;51.528;6.748;2022-07-23T11:55:28;3.80;;;2.55;;
20982;SDS011;10650;51.528;6.748;2022-07-23T11:57:56;2.95;;;2.50;;
20982;SDS011;10650;51.528;6.748;2022-07-23T12:00:28;2.20;;;1.88;;
20982;SDS011;10650;51.528;6.748;2022-07-23T12:03:05;3.80;;;2.40;;
20982;SDS011;10650;51.528;6.748;2022-07-23T12:05:34;2.92;;;2.70;;
20982;SDS011;10650;51.528;6.748;2022-07-23T12:08:03;2.95;;;2.40;;
20982;SDS011;10650;51.528;6.748;2022-07-23T12:10:33;2.38;;;2.10;;
20982;SDS011;10650;51.528;6.748;2022-07-23T12:13:03;3.35;;;2.33;;
20982;SDS011;10650;51.528;6.748;2022-07-23T12:15:34;2.75;;;2.20;;
20982;SDS011;10650;51.528;6.748;2022-07-23T12:18:06;2.75;;;2.38;;
20982;SDS011;10650;51.528;6.748;2022-07-23T12:20:35;2.95;;;2.45;;
20982;SDS011;10650;51.528;6.748;2022-07-23T12:23:05;3.08;;;2.60;;
20982;SDS011;10650;51.528;6.748;2022-07-23T12:25:34;3.38;;;2.40;;
20982;SDS011;10650;51.528;6.748;2022-07-23T12:28:04;2.90;;;2.22;;
20982;SDS011;10650;51.528;6.748;2022-07-23T12:30:38;3.30;;;2.67;;
20982;SDS011;10650;51.528;6.748;2022-07-23T12:33:08;4.07;;;2.50;;
20982;SDS011;10650;51.528;6.748;2022-07-23T12:35:38;3.55;;;2.33;;
20982;SDS011;10650;51.528;6.748;2022-07-23T12:38:08;3.38;;;2.38;;
20982;SDS011;10650;51.528;6.748;2022-07-23T12:40:41;2.88;;;2.20;;
20982;SDS011;10650;51.528;6.748;2022-07-23T12:43:11;3.53;;;2.30;;
20982;SDS011;10650;51.528;6.748;2022-07-23T12:45:48;6.72;;;4.50;;
20982;SDS011;10650;51.528;6.748;2022-07-23T12:48:18;3.90;;;3.03;;
20982;SDS011;10650;51.528;6.748;2022-07-23T12:51:02;2.53;;;2.33;;
20982;SDS011;10650;51.528;6.748;2022-07-23T12:53:31;3.90;;;2.65;;
20982;SDS011;10650;51.528;6.748;2022-07-23T12:56:04;3.03;;;2.72;;
20982;SDS011;10650;51.528;6.748;2022-07-23T12:58:45;3.20;;;2.53;;
20982;SDS011;10650;51.528;6.748;2022-07-23T13:01:25;4.43;;;2.30;;
20982;SDS011;10650;51.528;6.748;2022-07-23T13:03:56;5.07;;;2.40;;
20982;SDS011;10650;51.528;6.748;2022-07-23T13:06:26;2.40;;;2.20;;
20982;SDS011;10650;51.528;6.748;2022-07-23T13:08:56;2.90;;;2.60;;
20982;SDS011;10650;51.528;6.748;2022-07-23T13:11:27;3.17;;;2.55;;
20982;SDS011;10650;51.528;6.748;2022-07-23T13:13:56;5.25;;;2.70;;
20982;SDS011;10650;51.528;6.748;2022-07-23T13:16:25;3.90;;;2.30;;
20982;SDS011;10650;51.528;6.748;2022-07-23T13:18:54;3.28;;;2.50;;
20982;SDS011;10650;51.528;6.748;2022-07-23T13:21:24;3.08;;;2.78;;
20982;SDS011;10650;51.528;6.748;2022-07-23T13:23:54;3.38;;;2.63;;
20982;SDS011;10650;51.528;6.748;2022-07-23T13:26:22;2.90;;;2.40;;
20982;SDS011;10650;51.528;6.748;2022-07-23T13:28:50;3.38;;;2.47;;
20982;SDS011;10650;51.528;6.748;2022-07-23T13:31:18;4.30;;;2.47;;
20982;SDS011;10650;51.528;6.748;2022-07-23T13:33:48;4.78;;;2.85;;
20982;SDS011;10650;51.528;6.748;2022-07-23T13:36:16;2.95;;;2.65;;
20982;SDS011;10650;51.528;6.748;2022-07-23T13:38:44;3.03;;;2.70;;
20982;SDS011;10650;51.528;6.748;2022-07-23T13:41:12;2.72;;;2.50;;
20982;SDS011;10650;51.528;6.748;2022-07-23T13:43:44;2.53;;;2.33;;
20982;SDS011;10650;51.528;6.748;2022-07-23T13:46:13;3.65;;;2.80;;
20982;SDS011;10650;51.528;6.748;2022-07-23T13:48:41;3.47;;;2.65;;
20982;SDS011;10650;51.528;6.748;2022-07-23T13:51:10;3.35;;;2.92;;
20982;SDS011;10650;51.528;6.748;2022-07-23T13:53:39;3.00;;;2.70;;
20982;SDS011;10650;51.528;6.748;2022-07-23T13:56:07;3.35;;;3.03;;
20982;SDS011;10650;51.528;6.748;2022-07-23T13:58:35;4.07;;;3.20;;
20982;SDS011;10650;51.528;6.748;2022-07-23T14:01:03;4.28;;;3.17;;
20982;SDS011;10650;51.528;6.748;2022-07-23T14:03:31;3.10;;;2.80;;
20982;SDS011;10650;51.528;6.748;2022-07-23T14:06:00;4.03;;;2.90;;
20982;SDS011;10650;51.528;6.748;2022-07-23T14:08:29;3.00;;;2.70;;
20982;SDS011;10650;51.528;6.748;2022-07-23T14:10:57;4.47;;;3.13;;
20982;SDS011;10650;51.528;6.748;2022-07-23T14:13:26;3.15;;;2.80;;
20982;SDS011;10650;51.528;6.748;2022-07-23T14:15:55;3.60;;;3.17;;
20982;SDS011;10650;51.528;6.748;2022-07-23T14:18:23;4.38;;;2.80;;
20982;SDS011;10650;51.528;6.748;2022-07-23T14:20:58;4.25;;;3.10;;
20982;SDS011;10650;51.528;6.748;2022-07-23T14:23:27;4.25;;;3.40;;
20982;SDS011;10650;51.528;6.748;2022-07-23T14:25:59;3.47;;;3.15;;
20982;SDS011;10650;51.528;6.748;2022-07-23T14:28:30;3.85;;;2.88;;
20982;SDS011;10650;51.528;6.748;2022-07-23T14:31:03;4.80;;;3.13;;
20982;SDS011;10650;51.528;6.748;2022-07-23T14:33:45;3.30;;;3.00;;
20982;SDS011;10650;51.528;6.748;2022-07-23T14:36:14;3.42;;;3.10;;
20982;SDS011;10650;51.528;6.748;2022-07-23T14:38:45;3.30;;;2.90;;
20982;SDS011;10650;51.528;6.748;2022-07-23T14:41:17;4.20;;;3.28;;
20982;SDS011;10650;51.528;6.748;2022-07-23T14:44:06;3.95;;;3.42;;
20982;SDS011;10650;51.528;6.748;2022-07-23T14:46:46;5.25;;;3.35;;
20982;SDS011;10650;51.528;6.748;2022-07-23T14:49:16;4.28;;;3.30;;
20982;SDS011;10650;51.528;6.748;2022-07-23T14:51:45;3.28;;;2.88;;
20982;SDS011;10650;51.528;6.748;2022-07-23T14:54:13;3.88;;;3.22;;
20982;SDS011;10650;51.528;6.748;2022-07-23T14:56:43;3.50;;;3.20;;
20982;SDS011;10650;51.528;6.748;2022-07-23T14:59:11;3.30;;;3.00;;
20982;SDS011;10650;51.528;6.748;2022-07-23T15:01:44;4.78;;;3.10;;
20982;SDS011;10650;51.528;6.748;2022-07-23T15:04:15;4.82;;;3.40;;
20982;SDS011;10650;51.528;6.748;2022-07-23T15:07:02;3.70;;;3.38;;
20982;SDS011;10650;51.528;6.748;2022-07-23T15:09:31;3.72;;;3.42;;
20982;SDS011;10650;51.528;6.748;2022-07-23T15:12:03;3.28;;;2.97;;
20982;SDS011;10650;51.528;6.748;2022-07-23T15:14:38;4.03;;;2.97;;
20982;SDS011;10650;51.528;6.748;2022-07-23T15:17:06;3.72;;;2.92;;